GB-0400 weather

Lamb Holm Airfield
Scotland, United Kingdom

Public forecast

Using degrees Celsius for public forecast. Weather courtesy of forecast.io.

METAR (pilot weather report)

Closest report is Kirkwall Airport, 4.2 nm (7.8 km) N. Retrieved 2019/05/22 06:20 UTC (22 minutes ago):

EGPA 220620Z 32012KT 9999 -RA FEW004 SCT006 BKN009 09/08 Q1013

TAF (pilot weather forecast)

Closest forecast is RAF Lossiemouth, 72.4 nm (134.0 km) SSW. Retrieved 2019/05/22 06:36 UTC (6 minutes ago):

TAF EGQS 220425Z 2206/2224 25012KT 9999 FEW018 BKN025 TEMPO 2206/2213 6000 -RA SCT018 PROB30 TEMPO 2206/2213 27015G25KT 4000 SHRA SCT010 BKN018 TEMPO 2213/2224 29017G27KT 4000 SHRA SCT015 PROB40 TEMPO 2213/2224 3000 RADZ SCT008 BKN015